createdAt,value
2019-04-06T00:01:40.620Z,15.28
2019-04-06T00:04:08.474Z,17.07
2019-04-06T00:06:36.355Z,16.60
2019-04-06T00:09:05.156Z,16.30
2019-04-06T00:11:33.148Z,16.07
2019-04-06T00:14:01.533Z,15.28
2019-04-06T00:16:29.448Z,15.70
2019-04-06T00:18:57.339Z,15.70
2019-04-06T00:21:25.276Z,16.35
2019-04-06T00:23:53.155Z,16.93
2019-04-06T00:26:21.146Z,15.13
2019-04-06T00:28:49.011Z,16.30
2019-04-06T00:31:28.187Z,16.23
2019-04-06T00:33:56.160Z,17.37
2019-04-06T00:36:24.139Z,18.92
2019-04-06T00:38:52.035Z,16.65
2019-04-06T00:41:19.955Z,16.02
2019-04-06T00:43:47.855Z,16.80
2019-04-06T00:46:15.828Z,18.77
2019-04-06T00:48:43.820Z,14.93
2019-04-06T00:51:11.690Z,17.90
2019-04-06T00:53:39.719Z,16.20
2019-04-06T00:56:07.720Z,16.67
2019-04-06T00:58:35.704Z,16.73
2019-04-06T01:01:03.673Z,15.98
2019-04-06T01:03:31.646Z,16.57
2019-04-06T01:05:59.505Z,16.02
2019-04-06T01:08:27.394Z,17.50
2019-04-06T01:10:55.379Z,18.37
2019-04-06T01:13:23.297Z,18.27
2019-04-06T01:15:51.175Z,18.90
2019-04-06T01:18:19.154Z,16.02
2019-04-06T01:20:47.139Z,16.90
2019-04-06T01:23:15.027Z,16.50
2019-04-06T01:25:43.081Z,16.23
2019-04-06T01:28:11.017Z,16.55
2019-04-06T01:30:38.879Z,15.80
2019-04-06T01:33:07.792Z,16.67
2019-04-06T01:35:35.734Z,16.90
2019-04-06T01:38:03.651Z,18.02
2019-04-06T01:40:31.598Z,16.97
2019-04-06T01:42:59.602Z,18.12
2019-04-06T01:45:27.562Z,19.07
2019-04-06T01:47:55.464Z,16.85
2019-04-06T01:50:23.479Z,17.45
2019-04-06T01:52:51.390Z,18.17
2019-04-06T01:55:19.259Z,16.82
2019-04-06T01:57:47.154Z,17.15
2019-04-06T02:00:15.551Z,17.60
2019-04-06T02:02:46.005Z,16.37
2019-04-06T02:05:13.911Z,16.32
2019-04-06T02:07:41.780Z,14.85
2019-04-06T02:10:09.774Z,17.25
2019-04-06T02:12:37.766Z,17.42
2019-04-06T02:15:05.750Z,17.25
2019-04-06T02:17:33.766Z,16.70
2019-04-06T02:20:01.637Z,15.48
2019-04-06T02:22:29.600Z,19.05
2019-04-06T02:24:57.468Z,15.53
2019-04-06T02:27:25.387Z,17.62
2019-04-06T02:30:11.269Z,16.82
2019-04-06T02:32:51.054Z,17.40
2019-04-06T02:35:53.406Z,17.00
2019-04-06T02:38:39.309Z,18.12
2019-04-06T02:41:26.227Z,16.75
2019-04-06T02:43:54.222Z,19.00
2019-04-06T02:46:22.395Z,18.52
2019-04-06T02:48:50.633Z,17.82
2019-04-06T02:51:18.579Z,17.10
2019-04-06T02:53:46.658Z,20.05
2019-04-06T02:56:14.792Z,18.10
2019-04-06T02:58:43.389Z,18.32
2019-04-06T03:01:11.338Z,16.23
2019-04-06T03:03:39.393Z,17.92
2019-04-06T03:06:07.316Z,20.27
2019-04-06T03:08:35.345Z,20.52
2019-04-06T03:11:03.324Z,20.77
2019-04-06T03:13:31.927Z,19.77
2019-04-06T03:15:59.881Z,22.37
2019-04-06T03:18:27.939Z,20.20
2019-04-06T03:20:55.855Z,21.33
2019-04-06T03:23:25.218Z,19.95
2019-04-06T03:25:53.487Z,20.92
2019-04-06T03:28:21.472Z,17.48
2019-04-06T03:30:49.410Z,17.65
2019-04-06T03:33:17.410Z,18.32
2019-04-06T03:35:48.496Z,20.37
2019-04-06T03:38:15.016Z,25.68
2019-04-06T03:40:43.023Z,26.00
2019-04-06T03:43:11.172Z,24.23
2019-04-06T03:45:39.082Z,25.65
2019-04-06T03:48:07.069Z,24.85
2019-04-06T03:50:34.977Z,28.95
2019-04-06T03:53:02.951Z,29.27
2019-04-06T03:55:30.845Z,27.55
2019-04-06T03:57:58.819Z,27.02
2019-04-06T04:00:26.693Z,27.93
2019-04-06T04:02:54.863Z,29.23
2019-04-06T04:05:22.986Z,30.43
2019-04-06T04:07:51.418Z,29.27
2019-04-06T04:10:19.337Z,29.65
2019-04-06T04:12:47.354Z,30.37
2019-04-06T04:15:15.362Z,30.95
2019-04-06T04:17:43.376Z,30.77
2019-04-06T04:20:11.394Z,31.00
2019-04-06T04:22:39.328Z,30.68
2019-04-06T04:25:07.206Z,29.45
2019-04-06T04:27:35.411Z,30.97
2019-04-06T04:30:03.561Z,28.77
2019-04-06T04:32:31.553Z,30.75
2019-04-06T04:34:59.571Z,29.37
2019-04-06T04:37:27.533Z,30.32
2019-04-06T04:39:55.790Z,30.05
2019-04-06T04:42:23.796Z,29.52
2019-04-06T04:44:51.703Z,29.02
2019-04-06T04:47:19.794Z,29.45
2019-04-06T04:49:47.739Z,32.08
2019-04-06T04:52:15.648Z,29.92
2019-04-06T04:54:43.627Z,30.72
2019-04-06T04:57:11.604Z,30.57
2019-04-06T04:59:39.736Z,31.27
2019-04-06T05:02:07.961Z,31.05
2019-04-06T05:04:36.007Z,29.55
2019-04-06T05:07:03.932Z,29.92
2019-04-06T05:09:31.798Z,30.23
2019-04-06T05:11:59.692Z,29.10
2019-04-06T05:14:27.667Z,31.33
2019-04-06T05:16:55.889Z,29.35
2019-04-06T05:19:23.741Z,33.92
2019-04-06T05:21:51.678Z,30.43
2019-04-06T05:24:19.674Z,30.15
2019-04-06T05:26:47.585Z,30.15
2019-04-06T05:29:15.588Z,29.55
2019-04-06T05:31:43.794Z,30.72
2019-04-06T05:34:11.848Z,30.95
2019-04-06T05:36:39.749Z,31.77
2019-04-06T05:39:10.698Z,33.88
2019-04-06T05:41:38.608Z,30.75
2019-04-06T05:44:06.449Z,33.55
2019-04-06T05:46:34.347Z,32.60
2019-04-06T05:49:02.367Z,32.53
2019-04-06T05:51:30.432Z,33.45
2019-04-06T05:53:59.601Z,33.42
2019-04-06T05:56:27.575Z,33.13
2019-04-06T05:58:55.839Z,35.52
2019-04-06T06:01:23.883Z,32.58
2019-04-06T06:03:52.065Z,32.90
2019-04-06T06:06:20.014Z,33.30
2019-04-06T06:08:47.953Z,32.73
2019-04-06T06:11:16.090Z,33.35
2019-04-06T06:13:46.967Z,33.63
2019-04-06T06:16:14.979Z,33.58
2019-04-06T06:18:43.465Z,34.65
2019-04-06T06:21:11.374Z,32.35
2019-04-06T06:23:39.350Z,34.18
2019-04-06T06:26:07.233Z,35.70
2019-04-06T06:28:35.604Z,34.15
2019-04-06T06:31:03.619Z,35.33
2019-04-06T06:33:31.540Z,35.78
2019-04-06T06:35:59.903Z,42.62
2019-04-06T06:38:28.092Z,34.38
2019-04-06T06:40:56.109Z,34.90
2019-04-06T06:43:24.125Z,34.48
2019-04-06T06:45:52.295Z,33.85
2019-04-06T06:48:20.378Z,35.23
2019-04-06T06:50:48.366Z,34.73
2019-04-06T06:53:16.274Z,36.05
2019-04-06T06:55:44.154Z,32.23
2019-04-06T06:58:12.428Z,34.48
2019-04-06T07:00:40.449Z,32.73
2019-04-06T07:03:08.436Z,32.33
2019-04-06T07:05:36.416Z,35.03
2019-04-06T07:08:04.473Z,33.67
2019-04-06T07:10:32.397Z,33.18
2019-04-06T07:13:00.542Z,32.08
2019-04-06T07:15:28.762Z,32.40
2019-04-06T07:17:56.645Z,34.20
2019-04-06T07:20:24.743Z,34.27
2019-04-06T07:22:52.687Z,33.70
2019-04-06T07:25:20.532Z,34.98
2019-04-06T07:27:48.455Z,33.25
2019-04-06T07:30:16.526Z,36.55
2019-04-06T07:32:44.656Z,37.10
2019-04-06T07:35:12.718Z,35.20
2019-04-06T07:37:40.591Z,37.63
2019-04-06T07:40:08.829Z,34.67
2019-04-06T07:42:37.023Z,34.85
2019-04-06T07:45:04.975Z,35.73
2019-04-06T07:47:32.913Z,35.70
2019-04-06T07:50:00.874Z,34.65
2019-04-06T07:52:28.739Z,35.00
2019-04-06T07:54:56.803Z,33.45
2019-04-06T07:57:25.085Z,35.05
2019-04-06T07:59:53.049Z,33.33
2019-04-06T08:02:21.048Z,34.20
2019-04-06T08:04:48.915Z,34.78
2019-04-06T08:07:16.904Z,34.58
2019-04-06T08:09:44.766Z,34.35
2019-04-06T08:12:12.645Z,35.70
2019-04-06T08:14:40.517Z,41.20
2019-04-06T08:17:09.826Z,37.28
2019-04-06T08:19:37.685Z,33.90
2019-04-06T08:22:05.862Z,32.05
2019-04-06T08:24:33.958Z,32.60
2019-04-06T08:27:01.925Z,32.85
2019-04-06T08:29:30.129Z,32.10
2019-04-06T08:31:58.167Z,32.65
2019-04-06T08:34:26.162Z,31.73
2019-04-06T08:36:54.025Z,32.08
2019-04-06T08:39:21.900Z,32.48
2019-04-06T08:41:49.802Z,29.60
2019-04-06T08:44:17.808Z,30.82
2019-04-06T08:46:45.860Z,31.00
2019-04-06T08:49:13.848Z,31.33
2019-04-06T08:51:41.985Z,30.88
2019-04-06T08:54:10.159Z,30.48
2019-04-06T08:56:38.111Z,30.08
2019-04-06T08:59:11.245Z,29.50
2019-04-06T09:01:35.800Z,30.70
2019-04-06T09:04:03.830Z,28.60
2019-04-06T09:06:31.796Z,29.48
2019-04-06T09:08:59.755Z,29.27
2019-04-06T09:11:27.762Z,28.20
2019-04-06T09:13:55.720Z,28.75
2019-04-06T09:16:23.673Z,27.73
2019-04-06T09:18:51.557Z,28.67
2019-04-06T09:21:22.068Z,26.90
2019-04-06T09:23:49.108Z,27.10
2019-04-06T09:26:17.100Z,26.87
2019-04-06T09:28:45.209Z,26.02
2019-04-06T09:31:13.319Z,26.40
2019-04-06T09:33:43.284Z,27.05
2019-04-06T09:36:11.258Z,26.95
2019-04-06T09:38:39.124Z,26.07
2019-04-06T09:41:09.517Z,25.45
2019-04-06T09:43:37.607Z,25.55
2019-04-06T09:46:24.623Z,25.40
2019-04-06T09:49:11.582Z,26.23
2019-04-06T09:51:58.536Z,26.45
2019-04-06T09:54:31.965Z,24.15
2019-04-06T09:57:37.425Z,25.50
2019-04-06T10:00:24.419Z,23.95
2019-04-06T10:03:17.983Z,24.80
2019-04-06T10:06:02.990Z,23.30
2019-04-06T10:09:07.881Z,24.20
2019-04-06T10:11:49.675Z,23.07
2019-04-06T10:14:42.381Z,21.65
2019-04-06T10:17:20.068Z,22.85
2019-04-06T10:20:05.904Z,21.87
2019-04-06T10:25:37.392Z,22.33
2019-04-06T10:28:28.647Z,22.32
2019-04-06T10:31:14.849Z,21.57
2019-04-06T10:33:58.551Z,21.02
2019-04-06T10:36:50.497Z,47.70
2019-04-06T10:39:33.291Z,210.93
2019-04-06T10:42:10.732Z,90.55
2019-04-06T10:44:57.689Z,41.28
2019-04-06T10:47:33.777Z,23.10
2019-04-06T10:50:20.778Z,26.77
2019-04-06T10:53:02.185Z,21.60
2019-04-06T10:55:37.198Z,33.65
2019-04-06T10:58:36.215Z,22.48
2019-04-06T11:01:20.703Z,22.80
2019-04-06T11:04:00.291Z,34.45
2019-04-06T11:06:30.739Z,27.37
2019-04-06T11:09:29.732Z,34.13
2019-04-06T11:12:32.105Z,30.08
2019-04-06T11:15:37.448Z,24.50
2019-04-06T11:18:22.766Z,22.73
2019-04-06T11:21:12.323Z,43.45
2019-04-06T11:24:05.197Z,38.85
2019-04-06T11:26:58.130Z,28.55
2019-04-06T11:29:44.321Z,32.48
2019-04-06T11:32:30.977Z,24.40
2019-04-06T11:35:16.555Z,31.85
2019-04-06T11:38:02.040Z,29.48
2019-04-06T11:43:29.638Z,26.68
2019-04-06T11:46:09.689Z,24.87
2019-04-06T11:48:47.945Z,29.37
2019-04-06T11:51:29.838Z,26.23
2019-04-06T11:54:05.629Z,22.98
2019-04-06T11:56:55.862Z,21.10
2019-04-06T11:59:42.875Z,20.90
2019-04-06T12:02:42.014Z,20.50
2019-04-06T12:05:27.666Z,19.73
2019-04-06T12:08:10.540Z,18.93
2019-04-06T12:10:56.524Z,18.70
2019-04-06T12:13:55.841Z,18.37
2019-04-06T12:16:39.463Z,16.50
2019-04-06T12:19:29.138Z,15.43
2019-04-06T12:22:16.127Z,15.48
2019-04-06T12:25:04.071Z,15.78
2019-04-06T12:27:50.180Z,16.15
2019-04-06T12:30:39.596Z,15.55
2019-04-06T12:33:24.974Z,16.23
2019-04-06T12:36:11.966Z,17.27
2019-04-06T12:38:57.551Z,16.52
2019-04-06T12:41:47.291Z,17.10
2019-04-06T12:44:37.378Z,16.32
2019-04-06T12:47:18.927Z,18.62
2019-04-06T12:50:21.013Z,17.15
2019-04-06T12:53:00.194Z,17.77
2019-04-06T12:55:48.236Z,18.05
2019-04-06T12:58:34.753Z,18.48
2019-04-06T13:01:17.700Z,19.57
2019-04-06T13:04:03.666Z,35.98
2019-04-06T13:06:59.651Z,20.48
2019-04-06T13:09:52.584Z,18.05
2019-04-06T13:12:32.298Z,19.42
2019-04-06T13:15:08.991Z,18.82
2019-04-06T13:17:51.325Z,22.05
2019-04-06T13:20:44.461Z,21.35
2019-04-06T13:23:35.652Z,21.93
2019-04-06T13:26:25.587Z,21.90
2019-04-06T13:29:11.405Z,21.00
2019-04-06T13:34:37.007Z,20.62
2019-04-06T13:37:20.526Z,23.00
2019-04-06T13:39:55.814Z,25.92
2019-04-06T13:42:51.415Z,23.53
2019-04-06T13:45:47.605Z,25.88
2019-04-06T13:51:19.887Z,22.77
2019-04-06T13:53:58.525Z,21.77
2019-04-06T13:56:45.230Z,22.82
2019-04-06T13:59:19.151Z,23.32
2019-04-06T14:02:12.549Z,29.85
2019-04-06T14:04:58.578Z,33.35
2019-04-06T14:07:44.206Z,26.15
2019-04-06T14:10:36.392Z,25.57
2019-04-06T14:13:32.463Z,46.98
2019-04-06T14:19:08.317Z,28.75
2019-04-06T14:22:13.640Z,32.33
2019-04-06T14:25:00.555Z,25.60
2019-04-06T14:27:56.697Z,24.75
2019-04-06T14:33:50.716Z,24.25
2019-04-06T14:36:45.548Z,24.43
2019-04-06T14:39:42.154Z,21.97
2019-04-06T14:42:32.118Z,22.70
2019-04-06T14:45:23.923Z,22.45
2019-04-06T14:48:04.955Z,22.37
2019-04-06T14:51:10.440Z,23.35
2019-04-06T14:53:44.833Z,23.80
2019-04-06T14:56:22.576Z,24.75
2019-04-06T14:59:06.944Z,23.05
2019-04-06T15:01:57.993Z,23.07
2019-04-06T15:04:36.837Z,23.38
2019-04-06T15:07:25.130Z,23.18
2019-04-06T15:10:12.435Z,23.70
2019-04-06T15:12:59.095Z,23.05
2019-04-06T15:15:45.986Z,22.60
2019-04-06T15:18:35.802Z,22.58
2019-04-06T15:21:16.315Z,23.83
2019-04-06T15:23:53.176Z,22.13
2019-04-06T15:26:49.239Z,30.32
2019-04-06T15:29:35.810Z,23.12
2019-04-06T15:32:22.814Z,26.60
2019-04-06T15:35:09.837Z,23.65
2019-04-06T15:38:05.889Z,22.77
2019-04-06T15:40:41.606Z,22.58
2019-04-06T15:43:25.984Z,22.67
2019-04-06T15:46:30.207Z,23.18
2019-04-06T15:49:10.553Z,21.85
2019-04-06T15:52:10.682Z,21.30
2019-04-06T15:54:52.449Z,22.27
2019-04-06T15:57:38.223Z,21.68
2019-04-06T16:03:19.026Z,22.05
2019-04-06T16:06:07.347Z,21.75
2019-04-06T16:08:57.035Z,20.77
2019-04-06T16:11:44.145Z,19.20
2019-04-06T16:14:20.068Z,19.98
2019-04-06T16:17:00.390Z,21.23
2019-04-06T16:19:50.834Z,21.07
2019-04-06T16:22:40.982Z,20.08
2019-04-06T16:25:22.792Z,19.40
2019-04-06T16:28:08.627Z,19.82
2019-04-06T16:33:41.382Z,19.67
2019-04-06T16:36:27.999Z,21.23
2019-04-06T16:39:15.122Z,21.23
2019-04-06T16:42:03.374Z,21.55
2019-04-06T16:44:53.527Z,18.87
2019-04-06T16:47:33.119Z,20.08
2019-04-06T16:50:18.083Z,19.20
2019-04-06T16:52:56.794Z,18.55
2019-04-06T16:55:32.097Z,18.10
2019-04-06T16:58:17.447Z,19.23
2019-04-06T17:01:03.182Z,19.20
2019-04-06T17:06:26.084Z,17.87
2019-04-06T17:09:07.536Z,16.80
2019-04-06T17:11:53.620Z,17.77
2019-04-06T17:14:40.716Z,17.45
2019-04-06T17:17:17.775Z,15.35
2019-04-06T17:20:03.333Z,14.68
2019-04-06T17:22:39.046Z,12.05
2019-04-06T17:25:44.150Z,14.25
2019-04-06T17:28:25.472Z,14.20
2019-04-06T17:31:18.561Z,14.55
2019-04-06T17:34:00.430Z,13.28
2019-04-06T17:36:59.455Z,12.45
2019-04-06T17:39:39.275Z,11.78
2019-04-06T17:42:35.077Z,11.20
2019-04-06T17:45:20.883Z,10.95
2019-04-06T17:48:19.158Z,11.57
2019-04-06T17:51:12.032Z,12.30
2019-04-06T17:53:46.971Z,11.40
2019-04-06T17:56:33.241Z,10.55
2019-04-06T17:59:19.134Z,12.18
2019-04-06T18:04:39.296Z,12.70
2019-04-06T18:07:26.552Z,10.38
2019-04-06T18:10:07.874Z,10.98
2019-04-06T18:12:57.620Z,11.18
2019-04-06T18:15:28.785Z,12.50
2019-04-06T18:17:57.214Z,10.82
2019-04-06T18:20:27.891Z,12.68
2019-04-06T18:22:56.026Z,11.73
2019-04-06T18:25:26.886Z,10.88
2019-04-06T18:28:01.540Z,11.78
2019-04-06T18:30:29.440Z,10.65
2019-04-06T18:33:09.442Z,11.75
2019-04-06T18:35:38.338Z,11.10
2019-04-06T18:38:23.536Z,12.25
2019-04-06T18:40:51.528Z,11.68
2019-04-06T18:43:19.630Z,14.38
2019-04-06T18:45:47.788Z,16.20
2019-04-06T18:48:17.124Z,15.08
2019-04-06T18:50:46.355Z,15.25
2019-04-06T18:53:14.270Z,13.58
2019-04-06T18:55:42.772Z,13.10
2019-04-06T18:58:12.767Z,13.78
2019-04-06T19:00:40.618Z,14.65
2019-04-06T19:03:14.100Z,12.50
2019-04-06T19:05:38.437Z,13.32
2019-04-06T19:08:06.897Z,13.03
2019-04-06T19:10:35.047Z,12.58
2019-04-06T19:13:03.185Z,11.75
2019-04-06T19:15:31.241Z,12.15
2019-04-06T19:17:59.241Z,13.32
2019-04-06T19:20:27.514Z,12.88
2019-04-06T19:22:55.623Z,14.00
2019-04-06T19:25:23.767Z,13.15
2019-04-06T19:27:51.916Z,13.25
2019-04-06T19:30:20.396Z,13.20
2019-04-06T19:32:48.575Z,12.58
2019-04-06T19:35:16.983Z,12.80
2019-04-06T19:37:44.966Z,14.23
2019-04-06T19:40:13.444Z,14.15
2019-04-06T19:42:41.587Z,14.93
2019-04-06T19:45:13.776Z,15.60
2019-04-06T19:47:39.334Z,15.88
2019-04-06T19:50:07.401Z,14.25
2019-04-06T19:52:35.850Z,15.35
2019-04-06T19:55:03.912Z,14.10
2019-04-06T19:57:33.355Z,17.32
2019-04-06T20:00:01.438Z,18.42
2019-04-06T20:02:31.172Z,15.80
2019-04-06T20:04:59.280Z,17.27
2019-04-06T20:07:30.211Z,16.97
2019-04-06T20:09:59.557Z,16.70
2019-04-06T20:12:27.641Z,15.78
2019-04-06T20:14:55.804Z,14.95
2019-04-06T20:17:24.561Z,13.72
2019-04-06T20:19:52.613Z,14.43
2019-04-06T20:22:20.523Z,13.53
2019-04-06T20:24:48.453Z,13.20
2019-04-06T20:27:16.397Z,13.45
2019-04-06T20:29:44.405Z,13.95
2019-04-06T20:32:12.301Z,13.00
2019-04-06T20:34:40.315Z,12.78
2019-04-06T20:37:08.421Z,12.47
2019-04-06T20:39:36.494Z,12.43
2019-04-06T20:42:05.244Z,11.70
2019-04-06T20:44:33.263Z,12.10
2019-04-06T20:47:01.650Z,12.85
2019-04-06T20:49:29.736Z,13.30
2019-04-06T20:51:59.042Z,12.98
2019-04-06T20:54:27.303Z,13.45
2019-04-06T20:56:58.172Z,14.18
2019-04-06T20:59:24.873Z,13.88
2019-04-06T21:01:53.174Z,15.08
2019-04-06T21:04:21.223Z,12.75
2019-04-06T21:06:49.282Z,13.40
2019-04-06T21:09:17.276Z,14.00
2019-04-06T21:11:45.774Z,15.80
2019-04-06T21:14:13.751Z,15.83
2019-04-06T21:16:41.643Z,13.90
2019-04-06T21:19:09.575Z,15.15
2019-04-06T21:21:38.047Z,16.75
2019-04-06T21:24:06.739Z,16.60
2019-04-06T21:26:34.766Z,16.17
2019-04-06T21:29:02.672Z,16.48
2019-04-06T21:31:32.182Z,15.95
2019-04-06T21:34:09.784Z,16.57
2019-04-06T21:36:29.999Z,15.60
2019-04-06T21:38:58.730Z,15.45
2019-04-06T21:41:27.829Z,14.73
2019-04-06T21:43:56.860Z,13.85
2019-04-06T21:46:24.831Z,12.68
2019-04-06T21:48:53.236Z,13.90
2019-04-06T21:51:21.714Z,13.15
2019-04-06T21:53:50.278Z,14.80
2019-04-06T21:56:18.361Z,14.20
2019-04-06T21:58:46.442Z,14.20
2019-04-06T22:01:14.647Z,12.40
2019-04-06T22:03:42.991Z,13.58
2019-04-06T22:06:11.381Z,13.85
2019-04-06T22:08:39.539Z,12.98
2019-04-06T22:11:07.545Z,11.65
2019-04-06T22:13:35.791Z,11.90
2019-04-06T22:16:03.793Z,12.93
2019-04-06T22:18:31.789Z,12.40
2019-04-06T22:20:59.690Z,12.93
2019-04-06T22:23:39.858Z,13.35
2019-04-06T22:25:57.763Z,13.40
2019-04-06T22:28:25.945Z,13.18
2019-04-06T22:30:54.115Z,12.07
2019-04-06T22:33:22.431Z,13.48
2019-04-06T22:35:50.705Z,13.45
2019-04-06T22:38:18.859Z,13.55
2019-04-06T22:40:46.832Z,13.88
2019-04-06T22:43:15.723Z,13.08
2019-04-06T22:45:43.921Z,12.90
2019-04-06T22:48:12.000Z,14.28
2019-04-06T22:50:40.021Z,14.35
2019-04-06T22:53:07.933Z,15.35
2019-04-06T22:55:36.050Z,14.95
2019-04-06T22:58:04.019Z,13.38
2019-04-06T23:00:45.556Z,13.65
2019-04-06T23:03:25.288Z,14.47
2019-04-06T23:05:56.406Z,14.58
2019-04-06T23:08:24.626Z,14.45
2019-04-06T23:10:53.085Z,13.95
2019-04-06T23:13:21.463Z,15.83
2019-04-06T23:15:49.699Z,15.20
2019-04-06T23:18:17.797Z,15.65
2019-04-06T23:20:46.053Z,14.63
2019-04-06T23:23:14.320Z,14.50
2019-04-06T23:25:42.555Z,15.50
2019-04-06T23:28:10.570Z,15.45
2019-04-06T23:30:39.751Z,14.60
2019-04-06T23:33:08.212Z,12.95
2019-04-06T23:35:36.195Z,13.78
2019-04-06T23:38:04.184Z,13.98
2019-04-06T23:40:32.605Z,14.25
2019-04-06T23:43:00.537Z,15.03
2019-04-06T23:45:28.819Z,14.63
2019-04-06T23:47:56.744Z,14.47
2019-04-06T23:50:24.742Z,14.03
2019-04-06T23:52:52.847Z,12.40
2019-04-06T23:55:21.262Z,12.15
2019-04-06T23:57:49.436Z,12.45
